Spring Creek, Nebraska
Current Conditions -  °F | °C
As of 5:53 AM on Saturday 20 Dec 2014 (Local Time) from KBBW Reporting Station
Clear Clear  
Wind Chill: 19°   Ceiling: Unl
Heat Index: 19°   Visibility: 10mi
Dew Point: 16°   Wind: 3mph
Humidity: 88%   Direction: 250°WSW
Pressure: 29.99"   Gusts: NA
Location:  41.4141°N, 99.3925°W
Report Text: KBBW 201153Z AUTO 25003KT 10SM CLR M07/M09 A2999 RMK AO2 SLP187 I1000 I6000 T10721089 11022 21083 56004
Loading
Personal Weather Stations






























Interactive Weather Map New forecast layout! Learn more

10-Day Weather Forecast

Advertisements
Track Severe Weather on mobile